Terminal Aerodrome Forecast
Issued by NWS

Home | Current Version | Previous Version | Text Only | Print | Product List | Glossary On
Versions: 1 2 3 4 5 6 7 8 9 10 11 12 13 14 15 16
913
FTUS46 KLOX 260612 AAA
TAFBUR
TAF AMD
KBUR 260612Z 2606/2706 12008KT P6SM SKC
     FM260900 VRB03KT P6SM SKC
     FM261900 17008KT P6SM BKN050
     FM270400 VRB03KT P6SM SKC=

USA.gov is the U.S. government's official web portal to all federal, state and local government web resources and services.